Time;durP1;ratioP1;P1;durP2;ratioP2;P2;SDS_P1;SDS_P2;PMS_P1;PMS_P2;Temp;Humidity;BMP_temperature;BMP_pressure;BME280_temperature;BME280_humidity;BME280_pressure;Samples;Min_cycle;Max_cycle;Signal;HPM_P1;HPM_P2
2021/12/23 00:00:15;;;;;;;;;148.00;114.33;;;;;-146.39;100.00;62182.44;6278881;20;3725243;-51
2021/12/23 00:02:45;;;;;;;;;133.00;99.67;;;;;-146.39;100.00;62182.44;6280954;20;3705862;-50
2021/12/23 00:05:15;;;;;;;;;117.00;92.00;;;;;-146.39;100.00;62182.44;6279944;20;3687217;-50
2021/12/23 00:07:45;;;;;;;;;134.33;99.33;;;;;-146.39;100.00;62182.44;6278975;20;3698196;-52
2021/12/23 00:10:15;;;;;;;;;124.67;93.33;;;;;-146.39;100.00;62182.44;6277875;20;3700346;-49
2021/12/23 00:12:47;;;;;;;;;100.00;72.67;;;;;-146.39;100.00;62182.44;6281798;20;2904574;-50
2021/12/23 00:25:58;;;;;;;;;104.33;75.33;;;;;-146.39;100.00;62182.44;6312567;20;3675215;-49
2021/12/23 00:28:30;;;;;;;;;103.00;75.00;;;;;-146.39;100.00;62182.44;6311029;20;3672182;-53
2021/12/23 00:31:01;;;;;;;;;103.00;75.00;;;;;-146.39;100.00;62182.44;6310203;20;3667921;-53
2021/12/23 00:33:31;;;;;;;;;104.00;73.67;;;;;-146.39;100.00;62182.44;6310897;20;3670019;-49
2021/12/23 00:36:04;;;;;;;;;105.33;77.33;;;;;-146.39;100.00;62182.44;6311667;20;3664826;-52
2021/12/23 00:38:38;;;;;;;;;108.67;76.67;;;;;-146.39;100.00;62182.44;6310981;20;3681649;-52
2021/12/23 00:41:09;;;;;;;;;108.33;83.33;;;;;-146.39;100.00;62182.44;6309672;20;3677427;-50
2021/12/23 00:43:38;;;;;;;;;115.33;91.00;;;;;-146.39;100.00;62182.44;6312107;20;3690864;-52
2021/12/23 00:46:08;;;;;;;;;108.67;84.33;;;;;-146.39;100.00;62182.44;6276298;20;3675390;-52
2021/12/23 00:48:39;;;;;;;;;108.67;79.67;;;;;-146.39;100.00;62182.44;6310672;20;3674210;-51
2021/12/23 00:51:09;;;;;;;;;135.33;106.33;;;;;-146.39;100.00;62182.44;6308410;20;3709597;-52
2021/12/23 00:53:40;;;;;;;;;110.33;75.00;;;;;-146.39;100.00;62182.44;6278912;20;3678473;-50
2021/12/23 00:56:11;;;;;;;;;109.00;77.33;;;;;-146.39;100.00;62182.44;6309913;20;3671199;-52
2021/12/23 00:58:39;;;;;;;;;83.00;62.00;;;;;-146.39;100.00;62182.44;6308388;20;2502396;-53
2021/12/23 01:01:09;;;;;;;;;115.67;78.67;;;;;-146.39;100.00;62182.44;6278370;20;3695058;-51
2021/12/23 01:03:39;;;;;;;;;107.00;75.17;;;;;-146.39;100.00;62182.44;6273333;20;3669097;-52
2021/12/23 01:06:09;;;;;;;;;110.00;79.33;;;;;-146.39;100.00;62182.44;6311321;20;3677351;-51
2021/12/23 01:08:38;;;;;;;;;134.00;91.00;;;;;-146.39;100.00;62182.44;6314260;20;3698133;-50
2021/12/23 01:11:09;;;;;;;;;115.00;83.33;;;;;-146.39;100.00;62182.44;6283857;20;3677304;-48
2021/12/23 01:13:46;;;;;;;;;109.00;75.67;;;;;-146.39;100.00;62182.44;6316718;20;3678369;-52
2021/12/23 01:16:35;;;;;;;;;114.33;81.00;;;;;-146.39;100.00;62182.44;6315931;20;3682620;-50
2021/12/23 01:19:11;;;;;;;;;107.33;80.67;;;;;-146.39;100.00;62182.44;6280696;20;3675542;-48
2021/12/23 01:21:41;;;;;;;;;102.33;76.00;;;;;-146.39;100.00;62182.44;6314260;20;3673139;-52
2021/12/23 01:24:11;;;;;;;;;107.67;78.00;;;;;-146.39;100.00;62182.44;6315382;20;3667304;-51
2021/12/23 01:26:41;;;;;;;;;127.00;92.67;;;;;-146.39;100.00;62182.44;6315756;20;3704372;-48
2021/12/23 01:29:11;;;;;;;;;143.00;110.67;;;;;-146.39;100.00;62182.44;6282281;20;3716900;-48
2021/12/23 01:31:42;;;;;;;;;139.00;96.33;;;;;-146.39;100.00;62182.44;6281138;20;3694027;-50
2021/12/23 01:34:12;;;;;;;;;117.67;96.00;;;;;-146.39;100.00;62182.44;6284223;20;3691878;-48
2021/12/23 01:36:42;;;;;;;;;96.33;72.33;;;;;-146.39;100.00;62182.44;6282981;20;2901436;-52
2021/12/23 01:39:14;;;;;;;;;95.33;70.67;;;;;-146.39;100.00;62182.44;6314414;20;3654383;-48
2021/12/23 01:41:43;;;;;;;;;106.67;72.33;;;;;-146.39;100.00;62182.44;6316182;20;3680436;-51
2021/12/23 01:44:16;;;;;;;;;137.67;93.00;;;;;-146.39;100.00;62182.44;6313113;20;3691978;-52
2021/12/23 01:46:46;;;;;;;;;106.33;73.33;;;;;-146.39;100.00;62182.44;6280945;20;3685743;-48
2021/12/23 01:49:16;;;;;;;;;107.67;78.33;;;;;-146.39;100.00;62182.44;6282863;20;3677423;-48
2021/12/23 01:51:45;;;;;;;;;110.00;80.67;;;;;-146.39;100.00;62182.44;6313719;20;3664935;-48
2021/12/23 01:54:15;;;;;;;;;114.00;82.00;;;;;-146.39;100.00;62182.44;6314613;20;3676291;-53
2021/12/23 01:56:45;;;;;;;;;114.33;87.33;;;;;-146.39;100.00;62182.44;6282053;20;3692990;-50
2021/12/23 01:59:15;;;;;;;;;113.67;79.67;;;;;-146.39;100.00;62182.44;6310687;20;3668116;-50
2021/12/23 02:01:45;;;;;;;;;119.00;91.00;;;;;-146.39;100.00;62182.44;6313530;20;3705475;-52
2021/12/23 02:04:15;;;;;;;;;114.33;86.67;;;;;-146.39;100.00;62182.44;6280881;20;3681506;-50
2021/12/23 02:06:45;;;;;;;;;109.00;79.00;;;;;-146.39;100.00;62182.44;6313999;20;3679393;-53
2021/12/23 02:09:15;;;;;;;;;108.00;79.00;;;;;-146.39;100.00;62182.44;6315151;20;3666911;-53
2021/12/23 02:11:46;;;;;;;;;117.00;82.00;;;;;-146.39;100.00;62182.44;6314343;20;3685681;-53
2021/12/23 02:14:18;;;;;;;;;105.33;79.00;;;;;-146.39;100.00;62182.44;6279986;20;3660801;-53
2021/12/23 02:16:48;;;;;;;;;105.33;76.00;;;;;-146.39;100.00;62182.44;6310762;20;2907731;-51
2021/12/23 02:19:21;;;;;;;;;100.00;69.67;;;;;-146.39;100.00;62182.44;6312602;20;2903635;-49
2021/12/23 02:21:50;;;;;;;;;108.00;78.67;;;;;-146.39;100.00;62182.44;6314921;20;3672083;-51
2021/12/23 02:24:20;;;;;;;;;100.33;73.00;;;;;-146.39;100.00;62182.44;6314005;20;3664887;-50
2021/12/23 02:26:50;;;;;;;;;109.00;77.33;;;;;-146.39;100.00;62182.44;6313133;20;3674203;-49
2021/12/23 02:29:20;;;;;;;;;105.00;76.00;;;;;-146.39;100.00;62182.44;6312795;20;3681721;-53
2021/12/23 02:31:53;;;;;;;;;103.67;78.00;;;;;-146.39;100.00;62182.44;6280869;20;3667925;-50
2021/12/23 02:34:23;;;;;;;;;105.00;76.00;;;;;-146.39;100.00;62182.44;6312159;20;3666905;-51
2021/12/23 02:36:58;;;;;;;;;109.33;74.67;;;;;-146.39;100.00;62182.44;6312910;20;3676262;-49
2021/12/23 02:39:29;;;;;;;;;108.00;81.67;;;;;-146.39;100.00;62182.44;6311421;20;3666888;-50
2021/12/23 02:41:59;;;;;;;;;108.00;80.00;;;;;-146.39;100.00;62182.44;6313400;20;3673121;-50
2021/12/23 02:44:29;;;;;;;;;101.00;76.00;;;;;-146.39;100.00;62182.44;6313416;20;3667995;-52
2021/12/23 02:46:59;;;;;;;;;114.67;84.00;;;;;-146.39;100.00;62182.44;6313910;20;3697179;-51
2021/12/23 02:49:29;;;;;;;;;117.67;88.00;;;;;-146.39;100.00;62182.44;6281427;20;3692977;-50
2021/12/23 02:51:59;;;;;;;;;117.00;88.67;;;;;-146.39;100.00;62182.44;6279217;20;3688754;-50
2021/12/23 02:54:29;;;;;;;;;113.00;82.17;;;;;-146.39;100.00;62182.44;6276668;20;4450300;-49
2021/12/23 02:56:59;;;;;;;;;119.33;96.33;;;;;-146.39;100.00;62182.44;6312724;20;3709583;-52
2021/12/23 02:59:29;;;;;;;;;126.00;87.00;;;;;-146.39;100.00;62182.44;6275911;20;3692973;-49
2021/12/23 03:02:01;;;;;;;;;108.33;77.33;;;;;-146.39;100.00;62182.44;6279370;20;3680487;-49
2021/12/23 03:04:32;;;;;;;;;102.33;73.67;;;;;-146.39;100.00;62182.44;6310934;20;4435605;-52
2021/12/23 03:07:02;;;;;;;;;108.67;75.33;;;;;-146.39;100.00;62182.44;6309649;20;3680420;-50
2021/12/23 03:09:31;;;;;;;;;106.00;80.00;;;;;-146.39;100.00;62182.44;6276869;20;3677300;-51
2021/12/23 03:12:01;;;;;;;;;100.50;73.50;;;;;-146.39;100.00;62182.44;6308992;20;3668077;-50
2021/12/23 03:14:31;;;;;;;;;99.33;73.33;;;;;-146.39;100.00;62182.44;6309867;20;3673164;-50
2021/12/23 03:17:00;;;;;;;;;92.33;69.00;;;;;-146.39;100.00;62182.44;6307494;20;3657523;-48
2021/12/23 03:19:28;;;;;;;;;91.50;68.00;;;;;-146.39;100.00;62182.44;6304491;20;2502486;-49
2021/12/23 03:21:57;;;;;;;;;79.00;53.60;;;;;-146.39;100.00;62182.44;6278244;20;3643103;-48
2021/12/23 03:24:27;;;;;;;;;96.00;71.00;;;;;-146.39;100.00;62182.44;6283364;20;3662851;-50
2021/12/23 03:26:57;;;;;;;;;99.00;74.67;;;;;-146.39;100.00;62182.44;6312948;20;3666016;-51
2021/12/23 03:29:27;;;;;;;;;112.00;79.67;;;;;-146.39;100.00;62182.44;6311096;20;3669999;-49
2021/12/23 03:31:56;;;;;;;;;116.33;91.67;;;;;-146.39;100.00;62182.44;6311875;20;3690876;-51
2021/12/23 03:34:26;;;;;;;;;108.33;79.67;;;;;-146.39;100.00;62182.44;6278049;20;3667966;-51
2021/12/23 03:36:56;;;;;;;;;95.00;70.67;;;;;-146.39;100.00;62182.44;6312942;20;3655475;-50
2021/12/23 03:39:26;;;;;;;;;102.00;72.33;;;;;-146.39;100.00;62182.44;6309743;20;3671191;-51
2021/12/23 03:41:55;;;;;;;;;100.33;76.00;;;;;-146.39;100.00;62182.44;6312611;20;3667036;-49
2021/12/23 03:44:25;;;;;;;;;103.00;78.67;;;;;-146.39;100.00;62182.44;6311749;20;3653489;-49
2021/12/23 03:46:55;;;;;;;;;107.67;70.67;;;;;-146.39;100.00;62182.44;6312458;20;3676323;-48
2021/12/23 03:49:25;;;;;;;;;107.67;79.00;;;;;-146.39;100.00;62182.44;6312235;20;3682510;-51
2021/12/23 03:51:55;;;;;;;;;106.83;78.50;;;;;-146.39;100.00;62182.44;6279387;20;4431482;-50
2021/12/23 03:54:25;;;;;;;;;109.67;76.67;;;;;-146.39;100.00;62182.44;6312781;20;3677427;-48
2021/12/23 03:56:54;;;;;;;;;90.75;60.25;;;;;-146.39;100.00;62182.44;6276292;20;3637800;-54
2021/12/23 03:59:24;;;;;;;;;118.33;87.67;;;;;-146.39;100.00;62182.44;6310869;20;3699155;-53
2021/12/23 04:01:54;;;;;;;;;94.17;67.33;;;;;-146.39;100.00;62182.44;6277083;20;3667052;-47
2021/12/23 04:04:24;;;;;;;;;110.33;79.67;;;;;-146.39;100.00;62182.44;6313369;20;3685716;-48
2021/12/23 04:06:54;;;;;;;;;98.33;68.67;;;;;-146.39;100.00;62182.44;6276117;20;4436701;-51
2021/12/23 04:09:24;;;;;;;;;123.00;84.33;;;;;-146.39;100.00;62182.44;6313709;20;3698154;-51
2021/12/23 04:11:53;;;;;;;;;109.33;79.83;;;;;-146.39;100.00;62182.44;6275899;20;3676308;-54
2021/12/23 04:14:23;;;;;;;;;102.00;73.33;;;;;-146.39;100.00;62182.44;6310394;20;3687805;-51
2021/12/23 04:16:53;;;;;;;;;114.00;76.67;;;;;-146.39;100.00;62182.44;6311807;20;3679380;-54
2021/12/23 04:19:27;;;;;;;;;111.00;78.67;;;;;-146.39;100.00;62182.44;6311510;20;3682522;-52
2021/12/23 04:21:58;;;;;;;;;108.33;75.00;;;;;-146.39;100.00;62182.44;6312705;20;3678364;-51
2021/12/23 04:24:28;;;;;;;;;98.33;72.00;;;;;-146.39;100.00;62182.44;6310405;20;3663973;-47
2021/12/23 04:26:58;;;;;;;;;104.33;75.00;;;;;-146.39;100.00;62182.44;6312173;20;3674211;-51
2021/12/23 04:29:27;;;;;;;;;108.00;77.33;;;;;-146.39;100.00;62182.44;6310352;20;3688764;-52
2021/12/23 04:31:59;;;;;;;;;111.67;79.67;;;;;-146.39;100.00;62182.44;6310043;20;3686705;-49
2021/12/23 04:34:28;;;;;;;;;107.67;77.67;;;;;-146.39;100.00;62182.44;6308576;20;3680458;-50
2021/12/23 04:36:58;;;;;;;;;112.33;84.67;;;;;-146.39;100.00;62182.44;6311110;20;3690864;-48
2021/12/23 04:39:28;;;;;;;;;96.33;70.67;;;;;-146.39;100.00;62182.44;6276450;20;3677494;-52
2021/12/23 04:41:57;;;;;;;;;115.00;83.00;;;;;-146.39;100.00;62182.44;6315957;20;3692975;-51
2021/12/23 04:44:27;;;;;;;;;100.50;75.17;;;;;-146.39;100.00;62182.44;6280063;20;3680488;-51
2021/12/23 04:46:57;;;;;;;;;109.67;77.67;;;;;-146.39;100.00;62182.44;6316818;20;3679473;-54
2021/12/23 04:49:27;;;;;;;;;117.33;85.00;;;;;-146.39;100.00;62182.44;6315148;20;3700216;-51
2021/12/23 04:51:56;;;;;;;;;116.67;85.33;;;;;-146.39;100.00;62182.44;6286096;20;3708581;-51
2021/12/23 04:54:26;;;;;;;;;90.25;57.25;;;;;-146.39;100.00;62182.44;6281435;20;3653649;-52
2021/12/23 04:56:56;;;;;;;;;117.67;93.00;;;;;-146.39;100.00;62182.44;6316476;20;3698198;-55
2021/12/23 04:59:25;;;;;;;;;120.00;85.00;;;;;-146.39;100.00;62182.44;6283072;20;3714801;-50
2021/12/23 05:01:55;;;;;;;;;126.33;91.67;;;;;-146.39;100.00;62182.44;6285195;20;3701349;-51
2021/12/23 05:04:25;;;;;;;;;114.33;92.67;;;;;-146.39;100.00;62182.44;6284906;20;3679497;-51
2021/12/23 05:06:55;;;;;;;;;139.00;104.17;;;;;-146.39;100.00;62182.44;6280720;20;4488751;-50
2021/12/23 05:09:25;;;;;;;;;123.00;97.00;;;;;-146.39;100.00;62182.44;6316218;20;3720047;-53
2021/12/23 05:11:54;;;;;;;;;115.67;78.67;;;;;-146.39;100.00;62182.44;6283901;20;3696051;-51
2021/12/23 05:14:24;;;;;;;;;138.67;113.33;;;;;-146.39;100.00;62182.44;6282329;20;3721193;-50
2021/12/23 05:16:54;;;;;;;;;148.00;112.67;;;;;-146.39;100.00;62182.44;6284397;20;3721291;-50
2021/12/23 05:19:24;;;;;;;;;119.50;97.50;;;;;-146.39;100.00;62182.44;6282064;20;4472099;-53
2021/12/23 05:21:54;;;;;;;;;117.33;87.67;;;;;-146.39;100.00;62182.44;6316356;20;3696073;-51
2021/12/23 05:24:23;;;;;;;;;114.00;80.67;;;;;-146.39;100.00;62182.44;6283075;20;3694112;-51
2021/12/23 05:26:53;;;;;;;;;153.00;117.00;;;;;-146.39;100.00;62182.44;6314979;20;3709611;-50
2021/12/23 05:29:23;;;;;;;;;104.83;77.50;;;;;-146.39;100.00;62182.44;6280439;20;3681635;-53
2021/12/23 05:31:52;;;;;;;;;114.33;85.00;;;;;-146.39;100.00;62182.44;6314021;20;3683745;-51
2021/12/23 05:34:22;;;;;;;;;108.17;79.50;;;;;-146.39;100.00;62182.44;6277387;20;3678092;-49
2021/12/23 05:36:52;;;;;;;;;115.67;85.67;;;;;-146.39;100.00;62182.44;6314554;20;3697121;-48
2021/12/23 05:39:22;;;;;;;;;113.17;83.00;;;;;-146.39;100.00;62182.44;6280671;20;4456547;-48
2021/12/23 05:41:51;;;;;;;;;110.67;79.67;;;;;-146.39;100.00;62182.44;6315441;20;3684587;-49
2021/12/23 05:44:21;;;;;;;;;109.67;82.33;;;;;-146.39;100.00;62182.44;6279815;20;3686700;-54
2021/12/23 05:46:51;;;;;;;;;104.67;77.67;;;;;-146.39;100.00;62182.44;6281552;20;3669020;-50
2021/12/23 05:49:21;;;;;;;;;129.67;100.33;;;;;-146.39;100.00;62182.44;6312372;20;3721105;-52
2021/12/23 05:51:50;;;;;;;;;120.00;90.20;;;;;-146.39;100.00;62182.44;6279838;20;4343988;-48
2021/12/23 05:54:20;;;;;;;;;153.00;113.67;;;;;-146.39;100.00;62182.44;6312426;20;3709673;-49
2021/12/23 05:56:50;;;;;;;;;171.50;137.50;;;;;-146.39;100.00;62182.44;6283532;20;3662762;-51
2021/12/23 05:59:20;;;;;;;;;163.17;120.67;;;;;-146.39;100.00;62182.44;6277547;20;4481583;-48
2021/12/23 06:01:50;;;;;;;;;177.00;136.75;;;;;-146.39;100.00;62182.44;6314909;20;3705604;-49
2021/12/23 06:04:20;;;;;;;;;141.00;108.00;;;;;-146.39;100.00;62182.44;6279298;20;3708551;-50
2021/12/23 06:06:50;;;;;;;;;152.00;116.67;;;;;-146.39;100.00;62182.44;6282387;20;3727450;-49
2021/12/23 06:09:20;;;;;;;;;160.67;109.67;;;;;-146.39;100.00;62182.44;6282006;20;3721240;-52
2021/12/23 06:11:50;;;;;;;;;135.00;100.67;;;;;-146.39;100.00;62182.44;6283050;20;3701283;-51
2021/12/23 06:14:21;;;;;;;;;124.67;97.00;;;;;-146.39;100.00;62182.44;6282895;20;3710785;-50
2021/12/23 06:16:51;;;;;;;;;114.33;86.00;;;;;-146.39;100.00;62182.44;6278779;20;3683675;-47
2021/12/23 06:19:21;;;;;;;;;116.33;90.67;;;;;-146.39;100.00;62182.44;6281117;20;3690924;-50
2021/12/23 06:21:50;;;;;;;;;89.33;65.33;;;;;-146.39;100.00;62182.44;6281516;20;3638795;-47
2021/12/23 06:24:20;;;;;;;;;136.67;97.00;;;;;-146.39;100.00;62182.44;6282557;20;3704474;-49
2021/12/23 06:26:50;;;;;;;;;155.00;113.00;;;;;-146.39;100.00;62182.44;6281388;20;2832673;-50
2021/12/23 06:29:19;;;;;;;;;115.00;91.00;;;;;-146.39;100.00;62182.44;6313818;20;3684181;-50
2021/12/23 06:31:49;;;;;;;;;148.00;107.33;;;;;-146.39;100.00;62182.44;6280934;20;3709742;-50
2021/12/23 06:34:19;;;;;;;;;146.00;104.33;;;;;-146.39;100.00;62182.44;6283043;20;3713800;-50
2021/12/23 06:36:49;;;;;;;;;124.67;96.67;;;;;-146.39;100.00;62182.44;6280771;20;3707569;-49
2021/12/23 06:39:18;;;;;;;;;119.50;84.50;;;;;-146.39;100.00;62182.44;6278473;20;3573319;-51
2021/12/23 06:41:48;;;;;;;;;109.67;82.00;;;;;-146.39;100.00;62182.44;6309346;20;3665984;-48
2021/12/23 06:44:18;;;;;;;;;127.67;106.00;;;;;-146.39;100.00;62182.44;6313264;20;3716983;-51
2021/12/23 06:46:48;;;;;;;;;168.33;126.00;;;;;-146.39;100.00;62182.44;6281984;20;3720056;-52
2021/12/23 06:49:18;;;;;;;;;153.00;118.67;;;;;-146.39;100.00;62182.44;6281529;20;3714937;-51
2021/12/23 06:51:48;;;;;;;;;164.33;126.67;;;;;-146.39;100.00;62182.44;6281011;20;3718059;-50
2021/12/23 06:54:18;;;;;;;;;123.67;93.67;;;;;-146.39;100.00;62182.44;6283395;20;3707569;-49
2021/12/23 06:56:48;;;;;;;;;113.33;85.33;;;;;-146.39;100.00;62182.44;6282737;20;3689969;-48
2021/12/23 06:59:18;;;;;;;;;105.67;78.00;;;;;-146.39;100.00;62182.44;6280203;20;3679046;-48
2021/12/23 07:01:49;;;;;;;;;111.33;79.00;;;;;-146.39;100.00;62182.44;6310873;20;3666961;-52
2021/12/23 07:04:22;;;;;;;;;113.67;89.33;;;;;-146.39;100.00;62182.44;6312769;20;3688840;-49
2021/12/23 07:07:08;;;;;;;;;167.33;127.67;;;;;-146.39;100.00;62182.44;6281072;20;3698131;-49
2021/12/23 07:09:42;;;;;;;;;158.50;117.83;;;;;-146.39;100.00;62182.44;6278114;20;4487725;-48
2021/12/23 07:12:13;;;;;;;;;159.67;124.67;;;;;-146.39;100.00;62182.44;6315277;20;3721533;-53
2021/12/23 07:14:42;;;;;;;;;109.00;75.50;;;;;-146.39;100.00;62182.44;6274598;20;2579414;-51
2021/12/23 07:17:12;;;;;;;;;160.00;133.00;;;;;-146.39;100.00;62182.44;6282458;20;4491984;-51
2021/12/23 07:19:42;;;;;;;;;141.67;107.67;;;;;-146.39;100.00;62182.44;6280169;20;3708566;-51
2021/12/23 07:22:11;;;;;;;;;119.50;86.50;;;;;-146.39;100.00;62182.44;6282025;20;2741927;-51
2021/12/23 07:24:41;;;;;;;;;130.33;98.00;;;;;-146.39;100.00;62182.44;6312816;20;3706474;-49
2021/12/23 07:27:12;;;;;;;;;162.33;128.67;;;;;-146.39;100.00;62182.44;6278796;20;3725293;-48
2021/12/23 07:29:41;;;;;;;;;129.67;110.33;;;;;-146.39;100.00;62182.44;6311300;20;3702292;-49
2021/12/23 07:32:11;;;;;;;;;127.00;93.00;;;;;-146.39;100.00;62182.44;6281349;20;3705446;-48
2021/12/23 07:34:42;;;;;;;;;123.67;99.67;;;;;-146.39;100.00;62182.44;6281271;20;3706619;-49
2021/12/23 07:37:12;;;;;;;;;156.33;123.33;;;;;-146.39;100.00;62182.44;6281686;20;3731672;-50
2021/12/23 07:39:42;;;;;;;;;150.67;118.33;;;;;-146.39;100.00;62182.44;6279266;20;3716882;-53
2021/12/23 07:42:31;;;;;;;;;168.67;122.67;;;;;-146.39;100.00;62182.44;6279298;20;3717027;-50
2021/12/23 07:45:05;;;;;;;;;130.33;102.00;;;;;-146.39;100.00;62182.44;6280427;20;3717920;-51
2021/12/23 07:47:36;;;;;;;;;108.67;80.67;;;;;-146.39;100.00;62182.44;6279623;20;3689830;-50
2021/12/23 07:50:07;;;;;;;;;116.00;97.67;;;;;-146.39;100.00;62182.44;6313703;20;3687738;-52
2021/12/23 07:52:36;;;;;;;;;105.33;75.67;;;;;-146.39;100.00;62182.44;6279422;20;3677292;-50
2021/12/23 07:55:07;;;;;;;;;118.00;88.00;;;;;-146.39;100.00;62182.44;6313038;20;3698219;-51
2021/12/23 07:57:42;;;;;;;;;112.33;82.67;;;;;-146.39;100.00;62182.44;6276651;20;3683985;-51
2021/12/23 08:00:13;;;;;;;;;123.67;103.33;;;;;-146.39;100.00;62182.44;6309991;20;2935744;-54
2021/12/23 08:02:44;;;;;;;;;131.33;107.67;;;;;-146.39;100.00;62182.44;6310989;20;3706470;-47
2021/12/23 08:05:13;;;;;;;;;112.33;85.67;;;;;-146.39;100.00;62182.44;6278807;20;3675250;-50
2021/12/23 08:07:43;;;;;;;;;153.67;123.33;;;;;-146.39;100.00;62182.44;6310493;20;3721049;-51
2021/12/23 08:10:14;;;;;;;;;116.33;85.00;;;;;-146.39;100.00;62182.44;6278866;20;3695156;-52
2021/12/23 08:12:43;;;;;;;;;132.00;107.33;;;;;-146.39;100.00;62182.44;6281226;20;3725218;-50
2021/12/23 08:15:13;;;;;;;;;128.33;108.00;;;;;-146.39;100.00;62182.44;6279373;20;3722078;-51
2021/12/23 08:17:44;;;;;;;;;165.00;128.50;;;;;-146.39;100.00;62182.44;6276240;20;3724253;-52
2021/12/23 08:20:16;;;;;;;;;153.00;118.00;;;;;-146.39;100.00;62182.44;6276819;20;3729547;-53
2021/12/23 08:22:47;;;;;;;;;141.50;118.25;;;;;-146.39;100.00;62182.44;6281483;20;3713778;-45
2021/12/23 08:25:17;;;;;;;;;121.50;100.83;;;;;-146.39;100.00;62182.44;6308114;20;4470137;-47
2021/12/23 08:27:46;;;;;;;;;138.00;112.00;;;;;-146.39;100.00;62182.44;6312834;20;3697088;-44
2021/12/23 08:30:18;;;;;;;;;133.67;105.00;;;;;-146.39;100.00;62182.44;6278003;20;3705626;-44
2021/12/23 08:32:49;;;;;;;;;116.67;92.00;;;;;-146.39;100.00;62182.44;6279622;20;3690992;-47
2021/12/23 08:35:21;;;;;;;;;141.00;114.33;;;;;-146.39;100.00;62182.44;6277197;20;3707568;-46
2021/12/23 08:37:51;;;;;;;;;107.33;82.00;;;;;-146.39;100.00;62182.44;6280032;20;3681506;-43
2021/12/23 08:40:27;;;;;;;;;106.00;82.67;;;;;-146.39;100.00;62182.44;6311388;20;3670079;-42
2021/12/23 08:42:59;;;;;;;;;108.67;78.67;;;;;-146.39;100.00;62182.44;6311811;20;3683558;-42
2021/12/23 08:45:32;;;;;;;;;109.00;79.00;;;;;-146.39;100.00;62182.44;6275657;20;3677330;-42
2021/12/23 08:48:03;;;;;;;;;110.33;83.00;;;;;-146.39;100.00;62182.44;6278451;20;3677412;-43
2021/12/23 08:50:33;;;;;;;;;112.00;85.67;;;;;-146.39;100.00;62182.44;6309788;20;3698184;-41
2021/12/23 08:53:04;;;;;;;;;114.00;88.00;;;;;-146.39;100.00;62182.44;6277657;20;3680421;-44
2021/12/23 08:55:34;;;;;;;;;103.00;76.33;;;;;-146.39;100.00;62182.44;6309761;20;3674188;-44
2021/12/23 08:58:04;;;;;;;;;101.00;73.33;;;;;-146.39;100.00;62182.44;6310876;20;3670048;-43
2021/12/23 09:00:42;;;;;;;;;97.67;71.67;;;;;-146.39;100.00;62182.44;6270722;20;3671078;-42
2021/12/23 09:03:12;;;;;;;;;100.00;74.33;;;;;-146.39;100.00;62182.44;6312503;20;3663791;-42
2021/12/23 09:05:42;;;;;;;;;107.00;82.67;;;;;-146.39;100.00;62182.44;6309452;20;3682512;-42
2021/12/23 09:08:12;;;;;;;;;112.00;88.00;;;;;-146.39;100.00;62182.44;6273995;20;3701414;-42
2021/12/23 09:10:40;;;;;;;;;89.50;68.50;;;;;-146.39;100.00;62182.44;6272796;20;2500261;-42
2021/12/23 09:13:10;;;;;;;;;115.00;92.67;;;;;-146.39;100.00;62182.44;6275130;20;3673214;-42
2021/12/23 09:15:39;;;;;;;;;98.67;72.33;;;;;-146.39;100.00;62182.44;6310367;20;3661754;-41
2021/12/23 09:18:09;;;;;;;;;91.33;65.67;;;;;-146.39;100.00;62182.44;6310052;20;3662738;-41
2021/12/23 09:20:39;;;;;;;;;80.00;63.00;;;;;-146.39;100.00;62182.44;6310037;20;2873220;-43
2021/12/23 09:23:09;;;;;;;;;99.67;73.67;;;;;-146.39;100.00;62182.44;6309392;20;3664896;-43
2021/12/23 09:25:39;;;;;;;;;838.20;577.20;;;;;-146.39;100.00;62182.44;6266222;20;4510594;-42
2021/12/23 09:33:44;;;;;;;;;89.00;61.00;;;;;-146.39;100.00;62182.44;6282734;20;2891121;-42
2021/12/23 09:36:15;;;;;;;;;100.00;75.67;;;;;-146.39;100.00;62182.44;6312883;20;3661686;-43
2021/12/23 09:38:45;;;;;;;;;90.00;65.00;;;;;-146.39;100.00;62182.44;6315606;20;3658689;-43
2021/12/23 09:41:19;;;;;;;;;80.33;61.00;;;;;-146.39;100.00;62182.44;6317588;20;2891998;-41
2021/12/23 09:43:51;;;;;;;;;98.00;73.33;;;;;-146.39;100.00;62182.44;6317970;20;3668074;-42
2021/12/23 09:46:22;;;;;;;;;69.00;52.00;;;;;-146.39;100.00;62182.44;6313982;20;3616937;-42
2021/12/23 09:48:51;;;;;;;;;84.00;60.00;;;;;-146.39;100.00;62182.44;6284118;20;2500813;-42
2021/12/23 09:51:24;;;;;;;;;97.00;73.00;;;;;-146.39;100.00;62182.44;6286336;20;3655484;-43
2021/12/23 09:54:00;;;;;;;;;74.00;56.50;;;;;-146.39;100.00;62182.44;6317011;20;2878371;-44
2021/12/23 09:56:32;;;;;;;;;91.67;68.33;;;;;-146.39;100.00;62182.44;6286397;20;3658634;-42
2021/12/23 09:59:06;;;;;;;;;137.33;113.00;;;;;-146.39;100.00;62182.44;6318086;20;3720147;-42
2021/12/23 10:01:37;;;;;;;;;105.67;78.67;;;;;-146.39;100.00;62182.44;6283458;20;3668975;-42
2021/12/23 10:04:05;;;;;;;;;66.00;49.00;;;;;-146.39;100.00;62182.44;6314346;20;2503377;-43
2021/12/23 10:06:35;;;;;;;;;93.33;69.67;;;;;-146.39;100.00;62182.44;6286394;20;3651580;-43
2021/12/23 10:09:05;;;;;;;;;83.67;61.67;;;;;-146.39;100.00;62182.44;6318558;20;2898396;-42
2021/12/23 10:12:57;;;;;;;;;69.50;52.00;;;;;-146.39;100.00;62182.44;6316243;20;2881535;-41
2021/12/23 10:30:11;;;;;;;;;54.50;47.50;;;;;-146.39;100.00;62182.44;6286776;20;2868010;-41
2021/12/23 10:31:50;;;;;;;;;48.00;40.33;;;;;-146.39;100.00;62182.44;6277191;20;2864811;-41
2021/12/23 10:37:24;;;;;;;;;52.50;45.00;;;;;-146.39;100.00;62182.44;6317157;20;2870070;-41
2021/12/23 10:40:04;;;;;;;;;62.50;45.50;;;;;-146.39;100.00;62182.44;6282110;20;2866914;-41
2021/12/23 10:42:34;;;;;;;;;36.50;28.00;;;;;-146.39;100.00;62182.44;6285088;20;2846079;-41
2021/12/23 10:45:13;;;;;;;;;52.50;43.50;;;;;-146.39;100.00;62182.44;6287473;20;2862759;-43
2021/12/23 10:48:03;;;;;;;;;46.50;41.00;;;;;-146.39;100.00;62182.44;6285489;20;2875680;-41
2021/12/23 10:51:24;;;;;;;;;49.67;40.00;;;;;-146.39;100.00;62182.44;6284566;20;2875262;-42
2021/12/23 10:53:49;;;;;;;;;31.00;25.00;;;;;-146.39;100.00;62182.44;6313169;20;2500713;-41
2021/12/23 10:59:26;;;;;;;;;51.50;43.00;;;;;-146.39;100.00;62182.44;6287512;20;2868107;-42
2021/12/23 11:02:25;;;;;;;;;36.50;35.50;;;;;-146.39;100.00;62182.44;6286332;20;2858602;-42
2021/12/23 11:05:12;;;;;;;;;43.50;36.00;;;;;-146.39;100.00;62182.44;6285724;20;2866897;-42
2021/12/23 11:37:08;;;;;;;;;33.00;26.50;;;;;-146.39;100.00;62182.44;6283528;20;2500305;-45
2021/12/23 11:40:27;;;;;;;;;37.00;25.50;;;;;-146.39;100.00;62182.44;6281664;20;2500263;-43
2021/12/23 11:42:37;;;;;;;;;35.00;31.50;;;;;-146.39;100.00;62182.44;6284438;20;2851279;-42
2021/12/23 11:45:06;;;;;;;;;22.00;19.00;;;;;-146.39;100.00;62182.44;6284259;20;3556638;-42
2021/12/23 11:47:34;;;;;;;;;21.50;21.50;;;;;-146.39;100.00;62182.44;6286593;20;2824217;-45
2021/12/23 11:50:04;;;;;;;;;28.00;21.50;;;;;-146.39;100.00;62182.44;6283100;20;2832003;-43
2021/12/23 11:52:32;;;;;;;;;66.50;46.00;;;;;-146.39;100.00;62182.44;6281756;20;2499224;-42
2021/12/23 11:55:00;;;;;;;;;28.50;21.00;;;;;-146.39;100.00;62182.44;6278781;20;2500249;-42